Time;durP1;ratioP1;P1;durP2;ratioP2;P2;SDS_P1;SDS_P2;PMS_P1;PMS_P2;Temp;Humidity;BMP_temperature;BMP_pressure;BME280_temperature;BME280_humidity;BME280_pressure;Samples;Min_cycle;Max_cycle;Signal;HPM_P1;HPM_P2
2023/02/03 00:00:35;;;;;;;0.82;0.55;;;;;;;;;;5055528;28;20064;-54
2023/02/03 00:03:01;;;;;;;2.97;0.55;;;;;;;;;;5054809;28;20050;-54
2023/02/03 00:05:28;;;;;;;3.65;1.13;;;;;;;;;;5055236;28;20031;-56
2023/02/03 00:07:54;;;;;;;1.40;0.32;;;;;;;;;;5054844;28;20108;-56
2023/02/03 00:10:20;;;;;;;0.57;0.40;;;;;;;;;;5054829;28;20116;-56
2023/02/03 00:12:49;;;;;;;4.43;0.93;;;;;;;;;;5054676;28;20459;-57
2023/02/03 00:15:15;;;;;;;0.60;0.32;;;;;;;;;;5054740;28;20031;-53
2023/02/03 00:17:41;;;;;;;0.50;0.20;;;;;;;;;;5054650;28;20033;-56
2023/02/03 00:20:08;;;;;;;1.67;0.55;;;;;;;;;;5054990;28;20455;-55
2023/02/03 00:22:34;;;;;;;0.80;0.52;;;;;;;;;;5054664;28;20095;-56
2023/02/03 00:25:00;;;;;;;1.17;0.30;;;;;;;;;;5055259;28;20454;-56
2023/02/03 00:27:26;;;;;;;0.85;0.82;;;;;;;;;;5054562;28;20348;-55
2023/02/03 00:29:51;;;;;;;0.50;0.30;;;;;;;;;;5054656;28;20033;-54
2023/02/03 00:32:17;;;;;;;2.30;0.52;;;;;;;;;;5055027;28;20028;-56
2023/02/03 00:34:43;;;;;;;1.13;0.47;;;;;;;;;;5054422;28;20025;-56
2023/02/03 00:37:11;;;;;;;0.38;0.20;;;;;;;;;;5054409;28;20060;-55
2023/02/03 00:39:37;;;;;;;0.70;0.30;;;;;;;;;;5054797;28;20080;-55
2023/02/03 00:42:04;;;;;;;2.90;0.82;;;;;;;;;;5054489;28;20057;-55
2023/02/03 00:44:30;;;;;;;1.23;0.63;;;;;;;;;;5054587;28;20409;-55
2023/02/03 00:46:56;;;;;;;0.77;0.40;;;;;;;;;;5054083;28;20021;-57
2023/02/03 00:49:22;;;;;;;2.40;0.43;;;;;;;;;;5054156;28;20028;-54
2023/02/03 00:51:48;;;;;;;0.43;0.32;;;;;;;;;;5054082;28;20031;-56
2023/02/03 00:54:14;;;;;;;0.22;0.17;;;;;;;;;;5054644;28;20025;-57
2023/02/03 00:56:40;;;;;;;0.60;0.22;;;;;;;;;;5054004;28;20021;-55
2023/02/03 00:59:06;;;;;;;0.68;0.28;;;;;;;;;;5053965;28;20143;-56
2023/02/03 01:01:32;;;;;;;0.55;0.20;;;;;;;;;;5054268;28;20106;-55
2023/02/03 01:03:58;;;;;;;0.68;0.40;;;;;;;;;;5054001;28;20029;-59
2023/02/03 01:06:24;;;;;;;0.93;0.30;;;;;;;;;;5054401;28;20021;-56
2023/02/03 01:08:51;;;;;;;1.45;0.63;;;;;;;;;;5053849;28;20037;-57
2023/02/03 01:11:18;;;;;;;0.40;0.25;;;;;;;;;;5053785;28;20091;-55
2023/02/03 01:13:44;;;;;;;0.40;0.30;;;;;;;;;;5054041;28;20104;-56
2023/02/03 01:16:11;;;;;;;1.27;0.55;;;;;;;;;;5054564;28;20459;-57
2023/02/03 01:18:38;;;;;;;0.57;0.30;;;;;;;;;;5053600;28;20025;-52
2023/02/03 01:21:05;;;;;;;0.68;0.40;;;;;;;;;;5053906;28;20111;-52
2023/02/03 01:23:31;;;;;;;0.70;0.38;;;;;;;;;;5053631;28;20025;-54
2023/02/03 01:25:56;;;;;;;0.28;0.22;;;;;;;;;;5054538;28;20143;-56
2023/02/03 01:28:22;;;;;;;0.80;0.43;;;;;;;;;;5053575;28;20101;-56
2023/02/03 01:30:48;;;;;;;0.63;0.40;;;;;;;;;;5053632;28;20025;-56
2023/02/03 01:33:14;;;;;;;1.52;1.30;;;;;;;;;;5054128;28;20021;-53
2023/02/03 01:35:40;;;;;;;1.55;0.75;;;;;;;;;;5054171;28;20078;-56
2023/02/03 01:38:06;;;;;;;1.00;0.60;;;;;;;;;;5053549;28;20028;-53
2023/02/03 01:40:32;;;;;;;1.00;0.60;;;;;;;;;;5054260;28;20090;-55
2023/02/03 01:42:58;;;;;;;0.80;0.55;;;;;;;;;;5056711;28;20029;-56
2023/02/03 01:45:24;;;;;;;1.35;0.82;;;;;;;;;;5058136;28;20025;-56
2023/02/03 01:47:53;;;;;;;0.80;0.40;;;;;;;;;;5057781;28;20029;-55
2023/02/03 01:50:24;;;;;;;1.63;0.75;;;;;;;;;;5057460;28;20455;-56
2023/02/03 01:52:52;;;;;;;1.42;0.80;;;;;;;;;;5057458;28;20513;-52
2023/02/03 01:55:24;;;;;;;0.32;0.20;;;;;;;;;;5058029;28;20029;-54
2023/02/03 01:57:51;;;;;;;0.32;0.20;;;;;;;;;;5057409;28;20097;-56
2023/02/03 02:00:18;;;;;;;0.95;0.40;;;;;;;;;;5057478;28;20037;-56
2023/02/03 02:02:45;;;;;;;1.35;0.68;;;;;;;;;;5057822;28;20056;-56
2023/02/03 02:05:18;;;;;;;1.20;0.47;;;;;;;;;;5058055;28;20021;-52
2023/02/03 02:07:45;;;;;;;0.80;0.40;;;;;;;;;;5057550;28;20025;-54
2023/02/03 02:10:11;;;;;;;6.35;0.70;;;;;;;;;;5057199;28;20068;-56
2023/02/03 02:12:37;;;;;;;3.58;0.95;;;;;;;;;;5056999;28;20147;-55
2023/02/03 02:15:03;;;;;;;1.05;0.60;;;;;;;;;;5057573;28;20348;-54
2023/02/03 02:17:36;;;;;;;1.98;0.88;;;;;;;;;;5057364;28;20025;-56
2023/02/03 02:20:24;;;;;;;1.13;0.75;;;;;;;;;;5057175;28;20082;-54
2023/02/03 02:22:59;;;;;;;1.38;0.70;;;;;;;;;;5057158;28;20052;-56
2023/02/03 02:25:28;;;;;;;1.45;0.80;;;;;;;;;;5057453;28;20074;-52
2023/02/03 02:28:13;;;;;;;1.70;0.98;;;;;;;;;;5056439;28;20036;-55
2023/02/03 02:30:43;;;;;;;1.45;0.80;;;;;;;;;;5056831;28;20078;-55
2023/02/03 02:33:08;;;;;;;2.17;1.02;;;;;;;;;;5056639;28;20071;-54
2023/02/03 02:35:53;;;;;;;3.80;1.00;;;;;;;;;;5056645;28;20021;-56
2023/02/03 02:38:33;;;;;;;1.15;0.63;;;;;;;;;;5056622;28;20070;-55
2023/02/03 02:41:01;;;;;;;1.60;0.65;;;;;;;;;;5057182;28;20033;-56
2023/02/03 02:43:27;;;;;;;0.43;0.32;;;;;;;;;;5056629;28;20036;-54
2023/02/03 02:46:06;;;;;;;1.77;0.95;;;;;;;;;;5056746;28;20033;-55
2023/02/03 02:48:39;;;;;;;0.68;0.43;;;;;;;;;;5056711;28;20032;-55
2023/02/03 02:51:06;;;;;;;6.28;0.75;;;;;;;;;;5056620;28;20340;-55
2023/02/03 02:53:34;;;;;;;1.30;0.70;;;;;;;;;;5054840;28;20106;-55
2023/02/03 02:56:02;;;;;;;1.42;0.70;;;;;;;;;;5056901;28;20025;-52
2023/02/03 02:58:28;;;;;;;3.78;0.80;;;;;;;;;;5056135;28;20033;-53
2023/02/03 03:00:55;;;;;;;2.10;1.90;;;;;;;;;;5055866;28;20029;-56
2023/02/03 03:03:22;;;;;;;1.27;0.57;;;;;;;;;;5056074;28;20417;-51
2023/02/03 03:05:51;;;;;;;1.20;0.80;;;;;;;;;;5056531;28;20071;-51
2023/02/03 03:08:19;;;;;;;3.67;1.20;;;;;;;;;;5056741;28;20025;-51
2023/02/03 03:10:45;;;;;;;1.08;0.63;;;;;;;;;;5055792;28;20356;-54
2023/02/03 03:13:13;;;;;;;0.85;0.45;;;;;;;;;;5055768;28;20083;-56
2023/02/03 03:15:40;;;;;;;1.92;1.00;;;;;;;;;;5056052;28;20446;-56
2023/02/03 03:18:26;;;;;;;1.17;0.73;;;;;;;;;;5056022;28;20028;-55
2023/02/03 03:20:54;;;;;;;2.28;0.70;;;;;;;;;;5055737;28;20033;-56
2023/02/03 03:23:24;;;;;;;2.45;1.00;;;;;;;;;;5055568;28;20037;-56
2023/02/03 03:25:53;;;;;;;2.57;1.13;;;;;;;;;;5055848;28;20025;-55
2023/02/03 03:28:28;;;;;;;1.85;0.70;;;;;;;;;;5056006;28;20342;-54
2023/02/03 03:30:54;;;;;;;1.02;0.50;;;;;;;;;;5056476;28;20074;-52
2023/02/03 03:33:20;;;;;;;0.55;0.32;;;;;;;;;;5055948;28;20079;-57
2023/02/03 03:35:50;;;;;;;0.88;0.45;;;;;;;;;;5056178;28;20112;-56
2023/02/03 03:38:22;;;;;;;1.50;0.50;;;;;;;;;;5056166;28;20020;-57
2023/02/03 03:40:54;;;;;;;1.08;0.55;;;;;;;;;;5055547;28;20121;-52
2023/02/03 03:43:21;;;;;;;1.88;0.90;;;;;;;;;;5055922;28;20103;-56
2023/02/03 03:46:06;;;;;;;0.50;0.35;;;;;;;;;;5055850;28;20427;-56
2023/02/03 03:48:38;;;;;;;1.45;0.60;;;;;;;;;;5055278;28;20028;-56
2023/02/03 03:51:07;;;;;;;4.45;0.60;;;;;;;;;;5055107;28;20094;-57
2023/02/03 03:53:35;;;;;;;0.50;0.30;;;;;;;;;;5055155;28;20021;-56
2023/02/03 03:56:03;;;;;;;0.70;0.40;;;;;;;;;;5055362;28;20485;-54
2023/02/03 03:58:30;;;;;;;1.75;0.63;;;;;;;;;;5054667;28;20356;-52
2023/02/03 04:00:59;;;;;;;2.95;0.77;;;;;;;;;;5055107;28;20036;-55
2023/02/03 04:03:32;;;;;;;5.43;0.88;;;;;;;;;;5055802;28;20059;-57
2023/02/03 04:05:58;;;;;;;0.73;0.40;;;;;;;;;;5054820;28;20103;-57
2023/02/03 04:08:24;;;;;;;2.88;0.90;;;;;;;;;;5054894;28;20035;-57
2023/02/03 04:10:50;;;;;;;2.70;1.40;;;;;;;;;;5054884;28;20530;-57
2023/02/03 04:13:19;;;;;;;1.35;0.25;;;;;;;;;;5055354;28;20497;-53
2023/02/03 04:15:44;;;;;;;1.10;0.50;;;;;;;;;;5055283;28;20116;-57
2023/02/03 04:18:12;;;;;;;0.63;0.30;;;;;;;;;;5054983;28;20087;-55
2023/02/03 04:20:38;;;;;;;1.15;0.45;;;;;;;;;;5054588;28;20119;-57
2023/02/03 04:23:04;;;;;;;0.75;0.40;;;;;;;;;;5054784;28;20079;-55
2023/02/03 04:25:30;;;;;;;0.40;0.30;;;;;;;;;;5055309;28;20032;-57
2023/02/03 04:27:56;;;;;;;0.88;0.30;;;;;;;;;;5054785;28;20033;-56
2023/02/03 04:30:22;;;;;;;1.27;0.80;;;;;;;;;;5054464;28;20036;-55
2023/02/03 04:32:48;;;;;;;0.43;0.22;;;;;;;;;;5054360;28;20031;-57
2023/02/03 04:35:14;;;;;;;0.93;0.50;;;;;;;;;;5054881;28;20024;-57
2023/02/03 04:37:40;;;;;;;3.15;0.35;;;;;;;;;;5054382;28;20385;-55
2023/02/03 04:40:07;;;;;;;0.40;0.20;;;;;;;;;;5054326;28;20425;-56
2023/02/03 04:42:33;;;;;;;0.15;0.10;;;;;;;;;;5054616;28;20033;-55
2023/02/03 04:44:59;;;;;;;0.68;0.32;;;;;;;;;;5054991;28;20108;-56
2023/02/03 04:47:25;;;;;;;0.70;0.40;;;;;;;;;;5054927;28;20428;-56
2023/02/03 04:49:51;;;;;;;0.80;0.50;;;;;;;;;;5054251;28;20476;-56
2023/02/03 04:52:17;;;;;;;1.33;0.85;;;;;;;;;;5054734;28;20502;-54
2023/02/03 04:54:42;;;;;;;0.57;0.30;;;;;;;;;;5054284;28;20375;-56
2023/02/03 04:57:08;;;;;;;0.57;0.40;;;;;;;;;;5054107;28;20090;-53
2023/02/03 04:59:34;;;;;;;1.02;0.65;;;;;;;;;;5054310;28;20039;-54
2023/02/03 05:02:04;;;;;;;3.33;0.65;;;;;;;;;;5053791;28;20127;-54
2023/02/03 05:04:30;;;;;;;0.70;0.40;;;;;;;;;;5053968;28;20025;-57
2023/02/03 05:06:56;;;;;;;1.25;0.43;;;;;;;;;;5054369;28;20466;-57
2023/02/03 05:09:26;;;;;;;0.95;0.40;;;;;;;;;;5053949;28;20320;-56
2023/02/03 05:11:52;;;;;;;0.73;0.30;;;;;;;;;;5053438;28;20493;-55
2023/02/03 05:14:18;;;;;;;2.17;0.77;;;;;;;;;;5053825;28;20111;-57
2023/02/03 05:16:44;;;;;;;1.15;0.73;;;;;;;;;;5053113;28;20128;-57
2023/02/03 05:19:10;;;;;;;1.25;0.57;;;;;;;;;;5054460;28;20045;-56
2023/02/03 05:21:36;;;;;;;1.38;0.65;;;;;;;;;;5053719;28;20131;-55
2023/02/03 05:24:05;;;;;;;0.85;0.35;;;;;;;;;;5053791;28;20462;-55
2023/02/03 05:26:31;;;;;;;1.20;0.57;;;;;;;;;;5054547;28;20106;-56
2023/02/03 05:28:57;;;;;;;0.77;0.35;;;;;;;;;;5053789;28;20037;-57
2023/02/03 05:31:23;;;;;;;0.93;0.47;;;;;;;;;;5054484;28;20025;-57
2023/02/03 05:33:49;;;;;;;1.17;0.70;;;;;;;;;;5053575;28;20032;-53
2023/02/03 05:36:15;;;;;;;0.63;0.43;;;;;;;;;;5054096;28;20029;-55
2023/02/03 05:38:41;;;;;;;0.77;0.45;;;;;;;;;;5053478;28;20029;-54
2023/02/03 05:43:53;;;;;;;0.77;0.43;;;;;;;;;;5053557;28;20091;-55
2023/02/03 05:46:19;;;;;;;0.65;0.30;;;;;;;;;;5053573;28;20051;-57
2023/02/03 05:48:45;;;;;;;0.65;0.40;;;;;;;;;;5054000;28;20024;-55
2023/02/03 05:51:11;;;;;;;1.63;0.70;;;;;;;;;;5053675;28;20036;-57
2023/02/03 05:53:37;;;;;;;1.30;0.60;;;;;;;;;;5053336;28;20048;-55
2023/02/03 05:56:03;;;;;;;0.80;0.40;;;;;;;;;;5053469;28;20112;-57
2023/02/03 05:58:29;;;;;;;1.52;0.88;;;;;;;;;;5053392;28;20029;-56
2023/02/03 06:00:55;;;;;;;1.92;0.80;;;;;;;;;;5053738;28;20451;-57
2023/02/03 06:03:21;;;;;;;1.88;1.00;;;;;;;;;;5053830;28;20178;-56
2023/02/03 06:05:47;;;;;;;0.98;0.52;;;;;;;;;;5053553;28;20399;-57
2023/02/03 06:08:13;;;;;;;1.23;0.50;;;;;;;;;;5053275;28;20033;-57
2023/02/03 06:10:39;;;;;;;1.50;0.70;;;;;;;;;;5053811;28;20079;-57
2023/02/03 06:13:12;;;;;;;1.25;0.75;;;;;;;;;;5053070;28;20028;-56
2023/02/03 06:15:39;;;;;;;0.45;0.30;;;;;;;;;;5053518;28;20025;-56
2023/02/03 06:18:05;;;;;;;0.90;0.52;;;;;;;;;;5053197;28;20123;-55
2023/02/03 06:20:31;;;;;;;0.85;0.40;;;;;;;;;;5053086;28;20203;-55
2023/02/03 06:22:57;;;;;;;0.88;0.45;;;;;;;;;;5052848;28;20524;-53
2023/02/03 06:25:23;;;;;;;0.63;0.35;;;;;;;;;;5053721;28;20172;-57
2023/02/03 06:27:49;;;;;;;1.98;0.80;;;;;;;;;;5054774;28;20087;-57
2023/02/03 06:30:16;;;;;;;0.55;0.35;;;;;;;;;;5056793;28;20064;-57
2023/02/03 06:32:42;;;;;;;1.98;0.65;;;;;;;;;;5057051;28;20025;-56
2023/02/03 06:35:08;;;;;;;2.42;0.65;;;;;;;;;;5057595;28;20418;-56
2023/02/03 06:37:37;;;;;;;1.15;0.60;;;;;;;;;;5056988;28;20052;-55
2023/02/03 06:40:03;;;;;;;0.55;0.38;;;;;;;;;;5056588;28;20028;-56
2023/02/03 06:42:29;;;;;;;1.05;0.60;;;;;;;;;;5056232;28;20029;-57
2023/02/03 06:44:55;;;;;;;1.73;0.68;;;;;;;;;;5056542;28;20116;-56
2023/02/03 06:47:21;;;;;;;1.42;0.73;;;;;;;;;;5056581;28;20059;-57
2023/02/03 06:49:47;;;;;;;1.02;0.65;;;;;;;;;;5056856;28;20037;-55
2023/02/03 06:52:14;;;;;;;0.90;0.50;;;;;;;;;;5056493;28;20355;-56
2023/02/03 06:54:40;;;;;;;1.55;0.73;;;;;;;;;;5056393;28;20470;-56
2023/02/03 06:57:06;;;;;;;0.82;0.55;;;;;;;;;;5056378;28;20039;-57
2023/02/03 06:59:32;;;;;;;4.13;0.75;;;;;;;;;;5056287;28;20100;-57
2023/02/03 07:01:58;;;;;;;2.20;0.50;;;;;;;;;;5055956;28;20045;-55
2023/02/03 07:04:27;;;;;;;1.23;0.60;;;;;;;;;;5056531;28;20025;-57
2023/02/03 07:06:53;;;;;;;1.00;0.57;;;;;;;;;;5056053;28;20021;-57
2023/02/03 07:09:19;;;;;;;3.05;1.40;;;;;;;;;;5056358;28;20029;-56
2023/02/03 07:11:45;;;;;;;2.35;0.80;;;;;;;;;;5056367;28;20075;-54
2023/02/03 07:14:11;;;;;;;0.55;0.35;;;;;;;;;;5055782;28;20063;-53
2023/02/03 07:16:36;;;;;;;3.17;1.10;;;;;;;;;;5056336;28;20025;-56
2023/02/03 07:19:03;;;;;;;1.27;0.55;;;;;;;;;;5056687;28;20511;-57
2023/02/03 07:21:29;;;;;;;2.63;0.80;;;;;;;;;;5056075;28;20029;-54
2023/02/03 07:23:55;;;;;;;1.40;0.68;;;;;;;;;;5055817;28;20423;-57
2023/02/03 07:26:25;;;;;;;0.95;0.50;;;;;;;;;;5056032;28;20479;-56
2023/02/03 07:28:51;;;;;;;1.67;0.90;;;;;;;;;;5055682;28;20104;-57
2023/02/03 07:31:17;;;;;;;1.25;0.50;;;;;;;;;;5056079;28;20110;-56
2023/02/03 07:33:43;;;;;;;5.93;0.70;;;;;;;;;;5055612;28;20032;-57
2023/02/03 07:36:09;;;;;;;1.00;0.52;;;;;;;;;;5056175;28;20410;-55
2023/02/03 07:38:36;;;;;;;1.20;0.60;;;;;;;;;;5055325;28;20091;-53
2023/02/03 07:41:03;;;;;;;2.10;0.90;;;;;;;;;;5054608;28;20108;-57
2023/02/03 07:43:28;;;;;;;3.70;0.65;;;;;;;;;;5055382;28;20082;-55
2023/02/03 07:45:55;;;;;;;1.65;0.90;;;;;;;;;;5055453;28;20029;-56
2023/02/03 07:48:21;;;;;;;1.33;0.82;;;;;;;;;;5055383;28;20076;-57
2023/02/03 07:50:51;;;;;;;1.67;1.00;;;;;;;;;;5055852;28;20033;-55
2023/02/03 07:53:17;;;;;;;1.08;0.68;;;;;;;;;;5055021;28;20029;-55
2023/02/03 07:55:43;;;;;;;1.65;0.65;;;;;;;;;;5055502;28;20463;-57
2023/02/03 07:58:09;;;;;;;7.32;1.38;;;;;;;;;;5054773;28;20025;-55
2023/02/03 08:00:35;;;;;;;1.65;1.05;;;;;;;;;;5054856;28;20083;-57
2023/02/03 08:03:01;;;;;;;1.63;1.05;;;;;;;;;;5055440;28;20379;-56
2023/02/03 08:05:29;;;;;;;1.70;1.00;;;;;;;;;;5055626;28;20024;-56
2023/02/03 08:07:55;;;;;;;2.85;1.38;;;;;;;;;;5054206;28;20361;-57
2023/02/03 08:10:21;;;;;;;2.25;1.15;;;;;;;;;;5054995;28;20055;-55
2023/02/03 08:12:47;;;;;;;2.38;1.00;;;;;;;;;;5054885;28;20364;-55
2023/02/03 08:15:13;;;;;;;3.15;1.40;;;;;;;;;;5055265;28;20029;-57
2023/02/03 08:17:40;;;;;;;1.98;1.13;;;;;;;;;;5055351;28;20649;-54
2023/02/03 08:20:07;;;;;;;2.60;1.20;;;;;;;;;;5055149;28;20041;-57
2023/02/03 08:22:33;;;;;;;5.07;0.90;;;;;;;;;;5054805;28;20101;-56
2023/02/03 08:24:59;;;;;;;1.95;1.27;;;;;;;;;;5054836;28;20057;-55
2023/02/03 08:27:25;;;;;;;1.48;1.00;;;;;;;;;;5054679;28;20351;-57
2023/02/03 08:29:51;;;;;;;3.33;1.35;;;;;;;;;;5054304;28;20074;-56
2023/02/03 08:32:21;;;;;;;3.47;1.58;;;;;;;;;;5054512;28;20029;-56
2023/02/03 08:34:47;;;;;;;2.25;1.33;;;;;;;;;;5055124;28;20112;-56
2023/02/03 08:37:14;;;;;;;3.08;1.38;;;;;;;;;;5054454;28;20490;-56
2023/02/03 08:39:41;;;;;;;1.70;1.30;;;;;;;;;;5054366;28;20033;-54
2023/02/03 08:42:07;;;;;;;3.05;1.63;;;;;;;;;;5054333;28;20029;-58
2023/02/03 08:44:33;;;;;;;1.77;0.95;;;;;;;;;;5055008;28;20332;-55
2023/02/03 08:46:59;;;;;;;3.67;1.50;;;;;;;;;;5054518;28;20032;-56
2023/02/03 08:49:26;;;;;;;4.95;0.93;;;;;;;;;;5054266;28;20150;-58
2023/02/03 08:51:53;;;;;;;2.42;1.58;;;;;;;;;;5054138;28;20439;-57
2023/02/03 08:54:19;;;;;;;9.90;1.88;;;;;;;;;;5054817;28;20043;-58
2023/02/03 08:56:45;;;;;;;4.70;1.98;;;;;;;;;;5054694;28;20029;-57
2023/02/03 08:59:11;;;;;;;3.00;1.38;;;;;;;;;;5053964;28;20040;-57
2023/02/03 09:01:39;;;;;;;2.45;1.50;;;;;;;;;;5053935;28;20055;-56
2023/02/03 09:04:07;;;;;;;4.00;1.38;;;;;;;;;;5053985;28;20032;-57
2023/02/03 09:06:33;;;;;;;2.40;1.45;;;;;;;;;;5054529;28;20024;-54
2023/02/03 09:08:59;;;;;;;2.50;1.20;;;;;;;;;;5053972;28;20033;-57
2023/02/03 09:11:25;;;;;;;3.78;1.00;;;;;;;;;;5053869;28;20421;-57
2023/02/03 09:13:51;;;;;;;3.25;1.17;;;;;;;;;;5053589;28;20048;-57
2023/02/03 09:16:18;;;;;;;3.88;1.45;;;;;;;;;;5054470;28;20060;-57
2023/02/03 09:18:45;;;;;;;2.33;1.40;;;;;;;;;;5053825;28;20028;-57
2023/02/03 09:21:12;;;;;;;1.95;1.08;;;;;;;;;;5053613;28;20025;-58
2023/02/03 09:23:39;;;;;;;3.28;1.65;;;;;;;;;;5054157;28;20029;-58
2023/02/03 09:26:06;;;;;;;3.53;0.93;;;;;;;;;;5053814;28;20489;-58
2023/02/03 09:28:32;;;;;;;4.80;1.40;;;;;;;;;;5053734;28;20465;-57
2023/02/03 09:31:02;;;;;;;6.45;1.60;;;;;;;;;;5053559;28;20052;-57
2023/02/03 09:33:28;;;;;;;1.88;1.23;;;;;;;;;;5053705;28;20159;-56
2023/02/03 09:35:54;;;;;;;1.58;0.90;;;;;;;;;;5054286;28;20036;-54
2023/02/03 09:38:20;;;;;;;1.80;1.10;;;;;;;;;;5053881;28;20037;-57
2023/02/03 09:40:50;;;;;;;2.38;1.23;;;;;;;;;;5054061;28;20036;-56
2023/02/03 09:43:16;;;;;;;2.20;1.15;;;;;;;;;;5054081;28;20025;-57
2023/02/03 09:45:42;;;;;;;1.25;0.82;;;;;;;;;;5053888;28;20032;-55
2023/02/03 09:48:18;;;;;;;1.55;1.15;;;;;;;;;;5053484;28;20036;-58
2023/02/03 09:50:45;;;;;;;1.60;0.93;;;;;;;;;;5053469;28;20040;-54
2023/02/03 09:53:20;;;;;;;1.40;0.70;;;;;;;;;;5054207;28;20021;-58
2023/02/03 09:55:47;;;;;;;6.50;1.15;;;;;;;;;;5053536;28;20053;-56
2023/02/03 09:58:14;;;;;;;2.38;1.48;;;;;;;;;;5053280;28;20040;-57
2023/02/03 10:00:46;;;;;;;1.55;0.85;;;;;;;;;;5053638;28;20044;-59
2023/02/03 10:03:15;;;;;;;1.77;0.82;;;;;;;;;;5055929;28;20049;-57
2023/02/03 10:05:44;;;;;;;1.63;1.02;;;;;;;;;;5057824;28;20371;-57
2023/02/03 10:08:33;;;;;;;1.27;0.68;;;;;;;;;;5057489;28;20104;-57
2023/02/03 10:11:08;;;;;;;1.15;0.60;;;;;;;;;;5057523;28;20025;-56
2023/02/03 10:13:34;;;;;;;1.42;0.98;;;;;;;;;;5057472;28;20172;-58
2023/02/03 10:16:06;;;;;;;2.33;0.93;;;;;;;;;;5057750;28;20057;-57
2023/02/03 10:18:36;;;;;;;1.98;1.27;;;;;;;;;;5057944;28;20021;-58
2023/02/03 10:21:04;;;;;;;1.45;1.08;;;;;;;;;;5057151;28;20036;-56
2023/02/03 10:23:32;;;;;;;3.13;1.58;;;;;;;;;;5056942;28;20025;-56
2023/02/03 10:26:00;;;;;;;1.88;1.10;;;;;;;;;;5056849;28;20028;-53
2023/02/03 10:28:29;;;;;;;1.77;1.02;;;;;;;;;;5056937;28;20029;-56
2023/02/03 10:30:55;;;;;;;1.73;0.90;;;;;;;;;;5057432;28;20031;-56
2023/02/03 10:33:22;;;;;;;1.15;0.82;;;;;;;;;;5056700;28;20021;-58
2023/02/03 10:35:52;;;;;;;1.42;0.75;;;;;;;;;;5057631;28;20031;-53
2023/02/03 10:38:36;;;;;;;0.77;0.50;;;;;;;;;;5057242;28;20492;-53
2023/02/03 10:41:02;;;;;;;1.65;0.60;;;;;;;;;;5056599;28;20072;-54
2023/02/03 10:43:50;;;;;;;0.70;0.30;;;;;;;;;;5056715;28;20524;-55
2023/02/03 10:46:20;;;;;;;1.42;0.70;;;;;;;;;;5057149;28;20029;-54
2023/02/03 10:48:48;;;;;;;0.47;0.25;;;;;;;;;;5056609;28;20025;-53
2023/02/03 10:51:40;;;;;;;1.10;0.55;;;;;;;;;;5056228;28;20542;-54
2023/02/03 10:54:25;;;;;;;0.93;0.55;;;;;;;;;;5055023;28;20069;-58
2023/02/03 10:56:51;;;;;;;0.70;0.40;;;;;;;;;;5056568;28;20017;-57
2023/02/03 10:59:28;;;;;;;1.52;0.68;;;;;;;;;;5056283;28;20378;-57
2023/02/03 11:01:54;;;;;;;1.00;0.55;;;;;;;;;;5056610;28;20387;-57
2023/02/03 11:04:31;;;;;;;0.80;0.40;;;;;;;;;;5056240;28;20064;-58
2023/02/03 11:07:00;;;;;;;1.65;0.63;;;;;;;;;;5056372;28;20348;-56
2023/02/03 11:09:44;;;;;;;0.90;0.43;;;;;;;;;;5056127;28;20379;-58
2023/02/03 11:12:14;;;;;;;0.65;0.30;;;;;;;;;;5055982;28;20029;-58
2023/02/03 11:14:43;;;;;;;2.47;0.60;;;;;;;;;;5055450;28;20029;-58
2023/02/03 11:17:14;;;;;;;0.50;0.30;;;;;;;;;;5056484;28;20029;-57
2023/02/03 11:19:42;;;;;;;0.95;0.50;;;;;;;;;;5056141;28;20044;-55
2023/02/03 11:22:08;;;;;;;0.88;0.60;;;;;;;;;;5055989;28;20021;-57
2023/02/03 11:24:38;;;;;;;1.88;0.47;;;;;;;;;;5056039;28;20029;-57
2023/02/03 11:27:06;;;;;;;1.40;0.70;;;;;;;;;;5056290;28;20021;-58
2023/02/03 11:29:33;;;;;;;1.30;1.05;;;;;;;;;;5055766;28;20079;-57
2023/02/03 11:32:01;;;;;;;1.55;0.57;;;;;;;;;;5056388;28;20025;-57
2023/02/03 11:34:29;;;;;;;1.15;0.50;;;;;;;;;;5056282;28;20029;-57
2023/02/03 11:36:55;;;;;;;0.85;0.20;;;;;;;;;;5056002;28;20029;-56
2023/02/03 11:39:25;;;;;;;1.00;0.47;;;;;;;;;;5055578;28;20032;-58
2023/02/03 11:41:51;;;;;;;1.63;0.60;;;;;;;;;;5056161;28;20057;-56
2023/02/03 11:44:22;;;;;;;1.80;0.60;;;;;;;;;;5055349;28;20036;-57
2023/02/03 11:46:53;;;;;;;0.40;0.30;;;;;;;;;;5056330;28;20029;-55
2023/02/03 11:49:33;;;;;;;0.60;0.32;;;;;;;;;;5055771;28;20029;-57
2023/02/03 11:52:18;;;;;;;3.17;0.60;;;;;;;;;;5055490;28;20021;-58
2023/02/03 11:54:50;;;;;;;0.30;0.17;;;;;;;;;;5055301;28;20021;-58
2023/02/03 11:57:29;;;;;;;0.82;0.30;;;;;;;;;;5055711;28;20104;-57
2023/02/03 12:00:12;;;;;;;0.55;0.28;;;;;;;;;;5055280;28;20079;-57
2023/02/03 12:02:50;;;;;;;5.65;0.70;;;;;;;;;;5054733;28;20055;-57
2023/02/03 12:05:19;;;;;;;0.50;0.22;;;;;;;;;;5055278;28;20029;-56
2023/02/03 12:07:45;;;;;;;0.43;0.30;;;;;;;;;;5054858;28;20532;-58
2023/02/03 12:10:11;;;;;;;0.70;0.25;;;;;;;;;;5055142;28;20029;-57
2023/02/03 12:12:37;;;;;;;0.52;0.32;;;;;;;;;;5055227;28;20035;-57
2023/02/03 12:15:21;;;;;;;0.50;0.20;;;;;;;;;;5055609;28;20029;-56
2023/02/03 12:17:50;;;;;;;0.50;0.20;;;;;;;;;;5054592;28;20032;-57
2023/02/03 12:20:22;;;;;;;0.25;0.10;;;;;;;;;;5054772;28;20459;-58
2023/02/03 12:22:59;;;;;;;2.30;1.33;;;;;;;;;;5054858;28;20074;-57
2023/02/03 12:25:43;;;;;;;0.45;0.20;;;;;;;;;;5054698;28;20083;-57
2023/02/03 12:28:21;;;;;;;4.85;0.60;;;;;;;;;;5054438;28;20512;-57
2023/02/03 12:30:55;;;;;;;1.00;0.43;;;;;;;;;;5055134;28;20104;-58
2023/02/03 12:33:27;;;;;;;2.88;0.57;;;;;;;;;;5054595;28;20117;-58
2023/02/03 12:36:13;;;;;;;1.38;0.43;;;;;;;;;;5054884;28;20083;-56
2023/02/03 12:38:55;;;;;;;0.20;0.10;;;;;;;;;;5054931;28;20045;-57
2023/02/03 12:41:23;;;;;;;0.68;0.40;;;;;;;;;;5054247;28;20041;-58
2023/02/03 12:43:52;;;;;;;0.77;0.20;;;;;;;;;;5054366;28;20028;-55
2023/02/03 12:46:30;;;;;;;0.50;0.20;;;;;;;;;;5054543;28;20161;-57
2023/02/03 12:49:10;;;;;;;0.50;0.20;;;;;;;;;;5054288;28;20033;-55
2023/02/03 12:51:47;;;;;;;0.35;0.20;;;;;;;;;;5055010;28;20021;-56
2023/02/03 12:54:32;;;;;;;0.85;0.40;;;;;;;;;;5054831;28;20051;-58
2023/02/03 12:57:05;;;;;;;1.55;0.40;;;;;;;;;;5054804;28;20459;-57
2023/02/03 12:59:32;;;;;;;0.60;0.40;;;;;;;;;;5054629;28;20151;-57
2023/02/03 13:02:01;;;;;;;0.43;0.20;;;;;;;;;;5054466;28;20060;-58
2023/02/03 13:04:45;;;;;;;0.98;0.47;;;;;;;;;;5053889;28;20129;-56
2023/02/03 13:07:23;;;;;;;0.22;0.15;;;;;;;;;;5054553;28;20017;-57
2023/02/03 13:09:54;;;;;;;0.50;0.30;;;;;;;;;;5054055;28;20195;-57
2023/02/03 13:12:29;;;;;;;0.32;0.20;;;;;;;;;;5054052;28;20029;-56
2023/02/03 13:15:07;;;;;;;0.85;0.22;;;;;;;;;;5053794;28;20086;-56
2023/02/03 13:17:39;;;;;;;0.50;0.28;;;;;;;;;;5053909;28;20021;-58
2023/02/03 13:20:14;;;;;;;0.30;0.10;;;;;;;;;;5054147;28;20546;-58
2023/02/03 13:22:40;;;;;;;1.45;0.50;;;;;;;;;;5054053;28;20028;-57
2023/02/03 13:25:22;;;;;;;0.13;0.10;;;;;;;;;;5053823;28;20029;-58
2023/02/03 13:27:47;;;;;;;1.25;0.38;;;;;;;;;;5053771;28;20032;-57
2023/02/03 13:30:19;;;;;;;0.32;0.25;;;;;;;;;;5053040;28;20033;-56
2023/02/03 13:32:58;;;;;;;1.20;0.45;;;;;;;;;;5053986;28;20471;-56
2023/02/03 13:35:24;;;;;;;0.77;0.30;;;;;;;;;;5053722;28;20033;-57
2023/02/03 13:38:07;;;;;;;0.82;0.40;;;;;;;;;;5053217;28;20040;-57
2023/02/03 13:40:36;;;;;;;0.35;0.17;;;;;;;;;;5053772;28;20037;-58
2023/02/03 13:43:04;;;;;;;0.50;0.22;;;;;;;;;;5053520;28;20025;-57
2023/02/03 13:45:39;;;;;;;0.22;0.20;;;;;;;;;;5054041;28;20116;-57
2023/02/03 13:48:25;;;;;;;0.40;0.20;;;;;;;;;;5053356;28;20134;-57
2023/02/03 13:51:02;;;;;;;0.68;0.40;;;;;;;;;;5053611;28;20458;-55
2023/02/03 13:53:28;;;;;;;0.75;0.47;;;;;;;;;;5053656;28;20371;-57
2023/02/03 13:55:54;;;;;;;0.55;0.30;;;;;;;;;;5053934;28;20451;-58
2023/02/03 13:58:22;;;;;;;2.08;0.43;;;;;;;;;;5053863;28;20443;-58
2023/02/03 14:00:51;;;;;;;0.20;0.15;;;;;;;;;;5053319;28;20068;-57
2023/02/03 14:03:18;;;;;;;0.40;0.25;;;;;;;;;;5053557;28;20048;-58
2023/02/03 14:05:44;;;;;;;0.35;0.30;;;;;;;;;;5053378;28;20104;-57
2023/02/03 14:08:28;;;;;;;0.40;0.20;;;;;;;;;;5053101;28;20130;-58
2023/02/03 14:11:12;;;;;;;0.43;0.30;;;;;;;;;;5053205;28;20099;-57
2023/02/03 14:13:38;;;;;;;0.30;0.10;;;;;;;;;;5053267;28;20037;-56
2023/02/03 14:16:23;;;;;;;0.40;0.20;;;;;;;;;;5053244;28;20029;-58
2023/02/03 14:18:49;;;;;;;5.30;0.95;;;;;;;;;;5053065;28;20044;-57
2023/02/03 14:21:20;;;;;;;0.47;0.20;;;;;;;;;;5053738;28;20029;-57
2023/02/03 14:23:48;;;;;;;0.85;0.35;;;;;;;;;;5054030;28;20032;-58
2023/02/03 14:26:17;;;;;;;0.60;0.30;;;;;;;;;;5053546;28;20025;-57
2023/02/03 14:28:44;;;;;;;0.73;0.15;;;;;;;;;;5053231;28;20029;-57
2023/02/03 14:31:14;;;;;;;0.47;0.22;;;;;;;;;;5053124;28;20053;-57
2023/02/03 14:33:59;;;;;;;0.43;0.20;;;;;;;;;;5053691;28;20374;-57
2023/02/03 14:36:27;;;;;;;0.47;0.22;;;;;;;;;;5053340;28;20029;-57
2023/02/03 14:38:55;;;;;;;0.45;0.25;;;;;;;;;;5053002;28;20078;-57
2023/02/03 14:41:25;;;;;;;0.77;0.20;;;;;;;;;;5052802;28;20471;-57
2023/02/03 14:43:58;;;;;;;0.60;0.32;;;;;;;;;;5053600;28;20028;-56
2023/02/03 14:46:34;;;;;;;0.55;0.35;;;;;;;;;;5053025;28;20020;-58
2023/02/03 14:49:10;;;;;;;0.65;0.30;;;;;;;;;;5054520;28;20025;-58
2023/02/03 14:51:36;;;;;;;1.25;0.57;;;;;;;;;;5056706;28;20025;-56
2023/02/03 14:54:11;;;;;;;1.13;0.38;;;;;;;;;;5056207;28;20378;-57
2023/02/03 14:57:14;;;;;;;0.70;0.30;;;;;;;;;;5057005;28;20025;-55